Time;durP1;ratioP1;P1;durP2;ratioP2;P2;SDS_P1;SDS_P2;PMS_P1;PMS_P2;Temp;Humidity;BMP_temperature;BMP_pressure;BME280_temperature;BME280_humidity;BME280_pressure;Samples;Min_cycle;Max_cycle;Signal;HPM_P1;HPM_P2
2021/05/18 00:00:49;;;;;;;0.87;0.47;;;;;;;10.25;95.13;100078.69;5055130;28;20485;-68
2021/05/18 00:03:16;;;;;;;1.37;0.47;;;;;;;10.22;95.31;100073.84;5054959;28;20442;-69
2021/05/18 00:05:46;;;;;;;1.37;0.80;;;;;;;10.19;96.07;100074.50;5054530;28;20469;-69
2021/05/18 00:08:14;;;;;;;1.13;0.60;;;;;;;10.14;96.36;100085.47;5054858;28;20454;-68
2021/05/18 00:13:28;;;;;;;1.83;0.90;;;;;;;10.20;96.29;100086.91;5054523;28;20401;-69
2021/05/18 00:15:57;;;;;;;1.20;0.80;;;;;;;10.17;94.60;100101.06;5053924;28;20446;-69
2021/05/18 00:18:24;;;;;;;0.53;0.40;;;;;;;10.19;95.38;100096.16;5054255;28;20485;-69
2021/05/18 00:20:50;;;;;;;1.17;0.73;;;;;;;10.19;93.78;100082.59;5053892;28;20984;-69
2021/05/18 00:23:17;;;;;;;1.27;0.60;;;;;;;10.16;94.10;100090.53;5054188;28;20492;-69
2021/05/18 00:25:43;;;;;;;1.13;0.63;;;;;;;10.10;94.41;100084.47;5054218;28;20446;-68
2021/05/18 00:28:10;;;;;;;0.60;0.60;;;;;;;10.10;95.21;100089.88;5053686;28;20486;-69
2021/05/18 00:30:36;;;;;;;0.50;0.43;;;;;;;10.14;96.46;100085.47;5053999;28;20791;-69
2021/05/18 00:33:11;;;;;;;0.50;0.37;;;;;;;10.22;97.71;100094.72;5053949;28;20435;-69
2021/05/18 00:35:37;;;;;;;0.50;0.30;;;;;;;10.30;98.12;100097.50;5053896;28;20426;-68
2021/05/18 00:38:04;;;;;;;0.60;0.40;;;;;;;10.33;98.70;100099.59;5053734;28;20486;-69
2021/05/18 00:40:32;;;;;;;9.43;1.00;;;;;;;10.37;98.67;100094.34;5053681;28;20771;-69
2021/05/18 00:42:58;;;;;;;1.23;0.50;;;;;;;10.41;98.90;100095.31;5053791;28;20450;-68
2021/05/18 00:45:29;;;;;;;2.10;0.90;;;;;;;10.45;99.28;100095.50;5053079;28;20445;-69
2021/05/18 00:47:56;;;;;;;0.50;0.30;;;;;;;10.49;99.16;100089.16;5053509;28;20457;-69
2021/05/18 00:50:23;;;;;;;0.70;0.70;;;;;;;10.53;98.57;100095.50;5053601;28;20449;-69
2021/05/18 00:52:49;;;;;;;0.80;0.40;;;;;;;10.52;98.29;100090.41;5053714;28;20484;-69
2021/05/18 00:55:21;;;;;;;0.47;0.33;;;;;;;10.51;97.80;100102.38;5053553;28;20438;-69
2021/05/18 01:00:33;;;;;;;0.60;0.47;;;;;;;10.41;94.32;100105.38;5053617;28;20797;-69
2021/05/18 01:02:58;;;;;;;1.07;0.50;;;;;;;10.27;93.33;100108.97;5053861;28;20835;-69
2021/05/18 01:06:18;;;;;;;0.50;0.40;;;;;;;10.25;93.23;100104.94;5053999;28;20541;-70
2021/05/18 01:08:11;;;;;;;0.83;0.60;;;;;;;10.18;93.15;100101.84;5053686;28;20541;-69
2021/05/18 01:10:38;;;;;;;1.13;0.80;;;;;;;10.16;94.10;100102.16;5053642;28;20894;-70
2021/05/18 01:13:04;;;;;;;0.50;0.50;;;;;;;10.15;93.63;100100.56;5053735;28;20235;-69
2021/05/18 01:15:30;;;;;;;1.03;0.87;;;;;;;10.10;94.32;100114.25;5053726;28;20452;-68
2021/05/18 01:17:56;;;;;;;0.87;0.40;;;;;;;10.04;96.02;100113.53;5053484;28;21031;-70
2021/05/18 01:20:23;;;;;;;0.73;0.50;;;;;;;10.02;96.72;100120.41;5053884;28;20450;-70
2021/05/18 01:22:50;;;;;;;0.70;0.60;;;;;;;10.09;97.51;100121.56;5054410;28;20446;-69
2021/05/18 01:25:18;;;;;;;0.67;0.43;;;;;;;10.15;97.50;100130.34;5053899;28;20953;-69
2021/05/18 01:27:44;;;;;;;0.50;0.50;;;;;;;10.16;97.20;100137.34;5053627;28;20450;-70
2021/05/18 01:30:12;;;;;;;0.50;0.43;;;;;;;10.14;96.92;100134.16;5053592;28;20971;-69
2021/05/18 01:32:39;;;;;;;0.50;0.47;;;;;;;10.12;97.24;100139.06;5053978;28;20446;-69
2021/05/18 01:35:07;;;;;;;0.50;0.50;;;;;;;10.11;96.95;100140.97;5053959;28;20473;-69
2021/05/18 01:37:33;;;;;;;0.50;0.40;;;;;;;10.10;97.02;100138.59;5053597;28;20490;-69
2021/05/18 01:40:09;;;;;;;0.83;0.40;;;;;;;9.96;97.65;100143.25;5053725;28;20454;-69
2021/05/18 01:42:48;;;;;;;0.60;0.50;;;;;;;9.89;97.82;100146.41;5053812;28;20491;-70
2021/05/18 01:45:16;;;;;;;0.60;0.50;;;;;;;9.88;97.76;100152.13;5053967;28;20453;-70
2021/05/18 01:47:49;;;;;;;0.50;0.40;;;;;;;9.92;97.18;100151.22;5053641;28;20442;-70
2021/05/18 01:50:16;;;;;;;1.40;0.83;;;;;;;9.88;96.61;100152.13;5053605;28;20431;-69
2021/05/18 01:52:43;;;;;;;0.93;0.57;;;;;;;9.84;96.28;100151.94;5053376;28;20976;-70
2021/05/18 01:55:13;;;;;;;0.60;0.40;;;;;;;9.81;94.68;100156.03;5054029;28;20931;-69
2021/05/18 01:57:40;;;;;;;1.13;0.63;;;;;;;9.70;93.99;100153.91;5057660;28;20470;-70
2021/05/18 02:00:09;;;;;;;0.50;0.40;;;;;;;9.68;93.67;100159.59;5057469;28;20798;-70
2021/05/18 02:02:35;;;;;;;0.90;0.70;;;;;;;9.57;93.43;100152.81;5057288;28;20442;-70
2021/05/18 02:05:04;;;;;;;1.10;0.87;;;;;;;9.46;93.04;100152.25;5057595;28;20454;-70
2021/05/18 02:07:33;;;;;;;0.70;0.63;;;;;;;9.45;93.10;100161.47;5057496;28;20445;-70
2021/05/18 02:09:59;;;;;;;0.60;0.57;;;;;;;9.39;94.03;100170.00;5057739;28;20454;-70
2021/05/18 02:12:27;;;;;;;0.60;0.40;;;;;;;9.39;95.30;100172.69;5057170;28;20933;-70
2021/05/18 02:14:57;;;;;;;1.00;0.90;;;;;;;9.35;96.90;100178.69;5057405;28;20520;-70
2021/05/18 02:17:29;;;;;;;1.60;1.00;;;;;;;9.34;97.01;100174.41;5057116;28;20473;-71
2021/05/18 02:20:20;;;;;;;0.70;0.60;;;;;;;9.34;97.42;100178.97;5057734;28;20434;-71
2021/05/18 02:25:31;;;;;;;1.67;0.50;;;;;;;9.40;97.03;100185.09;5056715;28;20426;-70
2021/05/18 02:27:58;;;;;;;0.60;0.50;;;;;;;9.32;97.32;100187.41;5056609;28;21071;-70
2021/05/18 02:30:26;;;;;;;0.83;0.53;;;;;;;9.33;97.47;100188.19;5056898;28;20445;-70
2021/05/18 02:32:53;;;;;;;2.00;1.30;;;;;;;9.23;98.17;100185.72;5057108;28;20446;-70
2021/05/18 02:35:19;;;;;;;0.50;0.30;;;;;;;9.26;97.71;100191.31;5057169;28;20471;-71
2021/05/18 02:37:47;;;;;;;1.27;0.80;;;;;;;9.27;97.30;100186.72;5056024;28;20481;-65
2021/05/18 02:40:19;;;;;;;1.23;0.60;;;;;;;9.25;95.89;100195.13;5058931;28;20495;-66
2021/05/18 02:42:45;;;;;;;1.30;1.07;;;;;;;9.18;95.94;100196.63;5056215;28;20966;-66
2021/05/18 02:45:18;;;;;;;1.03;0.43;;;;;;;9.15;94.66;100205.34;5056295;28;20446;-69
2021/05/18 02:50:28;;;;;;;0.50;0.50;;;;;;;9.02;93.92;100205.03;5055949;28;20414;-69
2021/05/18 02:52:54;;;;;;;0.57;0.30;;;;;;;8.98;94.75;100208.63;5056199;28;20499;-69
2021/05/18 02:55:24;;;;;;;1.20;0.70;;;;;;;8.98;95.08;100206.72;5056486;28;20441;-69
2021/05/18 02:57:51;;;;;;;1.00;0.70;;;;;;;8.98;94.15;100212.13;5055682;28;20877;-70
2021/05/18 03:00:22;;;;;;;0.73;0.50;;;;;;;8.95;95.30;100209.25;5056285;28;20540;-69
2021/05/18 03:02:50;;;;;;;0.60;0.47;;;;;;;8.90;97.59;100215.53;5056171;28;20427;-69
2021/05/18 03:05:16;;;;;;;0.40;0.30;;;;;;;8.98;98.33;100222.13;5055904;28;20963;-69
2021/05/18 03:07:42;;;;;;;0.50;0.40;;;;;;;9.01;98.86;100219.63;5054805;28;20449;-69
2021/05/18 03:10:09;;;;;;;1.00;0.60;;;;;;;9.12;99.12;100228.38;5055724;28;20451;-68
2021/05/18 03:12:35;;;;;;;0.60;0.60;;;;;;;9.27;98.61;100225.34;5055815;28;20849;-69
2021/05/18 03:15:01;;;;;;;0.40;0.33;;;;;;;9.34;98.16;100223.06;5055896;28;20438;-69
2021/05/18 03:17:30;;;;;;;0.77;0.50;;;;;;;9.40;98.27;100233.75;5055748;28;20490;-70
2021/05/18 03:19:56;;;;;;;0.80;0.60;;;;;;;9.47;97.97;100232.22;5055879;28;20443;-70
2021/05/18 03:22:22;;;;;;;0.60;0.50;;;;;;;9.55;97.96;100230.72;5055703;28;21002;-70
2021/05/18 03:24:48;;;;;;;2.20;0.90;;;;;;;9.63;97.71;100231.91;5055504;28;20973;-69
2021/05/18 03:27:15;;;;;;;0.70;0.40;;;;;;;9.67;97.59;100228.31;5056204;28;20461;-69
2021/05/18 03:29:43;;;;;;;0.50;0.30;;;;;;;9.71;97.97;100236.63;5056145;28;20469;-69
2021/05/18 03:34:54;;;;;;;0.50;0.50;;;;;;;9.77;98.76;100247.00;5055001;28;20410;-70
2021/05/18 03:37:24;;;;;;;0.60;0.40;;;;;;;9.82;97.89;100240.69;5055051;28;20477;-70
2021/05/18 03:39:54;;;;;;;0.47;0.40;;;;;;;9.86;97.28;100249.78;5055635;28;20834;-69
2021/05/18 03:42:22;;;;;;;0.70;0.60;;;;;;;9.94;95.56;100254.50;5055887;28;20446;-70
2021/05/18 03:45:08;;;;;;;0.63;0.57;;;;;;;10.00;94.20;100253.25;5055152;28;20442;-70
2021/05/18 03:53:26;;;;;;;2.00;0.80;;;;;;;10.11;95.03;100259.25;5055211;28;20410;-68
2021/05/18 03:58:53;;;;;;;0.73;0.50;;;;;;;10.38;97.48;100268.41;5055208;28;20577;-70
2021/05/18 04:04:11;;;;;;;0.80;0.60;;;;;;;10.69;97.92;100271.19;5055062;28;20406;-70
2021/05/18 04:12:26;;;;;;;0.87;0.57;;;;;;;11.04;98.82;100269.47;5054644;28;20418;-70
2021/05/18 04:17:40;;;;;;;6.73;0.73;;;;;;;11.25;98.33;100277.84;5054757;28;20457;-71
2021/05/18 04:20:18;;;;;;;0.90;0.80;;;;;;;11.37;97.95;100289.69;5054205;28;20450;-70
2021/05/18 04:22:57;;;;;;;0.80;0.70;;;;;;;11.42;97.39;100280.63;5054971;28;20535;-70
2021/05/18 04:25:45;;;;;;;0.60;0.47;;;;;;;11.50;96.85;100282.53;5054692;28;20824;-71
2021/05/18 04:39:17;;;;;;;0.50;0.40;;;;;;;11.52;95.33;100293.91;5053612;28;20461;-74
2021/05/18 04:52:59;;;;;;;1.17;0.60;;;;;;;11.84;95.90;100302.78;5026905;28;20442;-74
2021/05/18 05:00:56;;;;;;;1.10;1.00;;;;;;;12.08;96.32;100305.03;5053573;28;20430;-70
2021/05/18 05:08:52;;;;;;;0.80;0.50;;;;;;;12.42;95.21;100322.50;5053291;28;20405;-71
2021/05/18 05:16:51;;;;;;;1.10;1.00;;;;;;;12.72;93.63;100331.59;5049287;28;20465;-71
2021/05/18 05:19:18;;;;;;;1.77;1.00;;;;;;;12.75;93.79;100334.47;5053112;28;20481;-74
2021/05/18 05:21:45;;;;;;;0.60;0.60;;;;;;;12.84;93.57;100334.47;5052907;28;20871;-74
2021/05/18 05:24:11;;;;;;;0.80;0.60;;;;;;;12.94;93.42;100350.44;5053204;28;20442;-74
2021/05/18 05:26:40;;;;;;;0.87;0.60;;;;;;;13.00;93.46;100348.31;5053058;28;20475;-75
2021/05/18 05:29:07;;;;;;;2.80;1.37;;;;;;;13.07;92.82;100349.44;5053029;28;20444;-73
2021/05/18 05:31:34;;;;;;;2.63;1.67;;;;;;;13.03;92.53;100347.69;5052407;28;20438;-75
2021/05/18 05:34:00;;;;;;;2.40;1.53;;;;;;;12.99;92.99;100346.75;5052915;28;20441;-74
2021/05/18 05:36:26;;;;;;;1.90;1.30;;;;;;;13.09;92.46;100358.06;5053018;28;20473;-74
2021/05/18 05:38:59;;;;;;;2.57;0.93;;;;;;;13.17;91.55;100361.88;5052759;28;20490;-74
2021/05/18 05:41:25;;;;;;;1.77;1.20;;;;;;;13.24;91.88;100359.50;5053107;28;20496;-74
2021/05/18 05:43:51;;;;;;;1.57;1.40;;;;;;;13.30;91.84;100357.41;5053082;28;20446;-74
2021/05/18 05:46:17;;;;;;;1.40;1.10;;;;;;;13.36;91.29;100361.53;5053022;28;20470;-73
2021/05/18 05:48:43;;;;;;;1.47;1.23;;;;;;;13.42;90.97;100365.69;5052993;28;20984;-74
2021/05/18 05:51:09;;;;;;;1.90;1.20;;;;;;;13.47;90.75;100362.00;5052907;28;20446;-74
2021/05/18 05:53:35;;;;;;;2.97;2.07;;;;;;;13.41;90.69;100364.09;5052874;28;20464;-74
2021/05/18 05:56:01;;;;;;;1.70;0.90;;;;;;;13.35;90.73;100365.41;5052786;28;20467;-74
2021/05/18 05:58:28;;;;;;;1.70;0.97;;;;;;;13.32;91.08;100369.53;5052815;28;20498;-73
2021/05/18 06:00:56;;;;;;;9.30;1.80;;;;;;;13.33;91.00;100371.16;5053015;28;20541;-72
2021/05/18 06:03:23;;;;;;;2.47;1.50;;;;;;;13.38;90.88;100376.44;5052430;28;20968;-72
2021/05/18 06:05:49;;;;;;;6.07;1.80;;;;;;;13.39;90.68;100374.50;5052561;28;20454;-72
2021/05/18 06:08:14;;;;;;;3.33;1.97;;;;;;;13.41;90.61;100379.59;5052612;28;20446;-73
2021/05/18 06:10:43;;;;;;;2.23;1.70;;;;;;;13.35;90.86;100387.16;5052716;28;21026;-74
2021/05/18 06:13:40;;;;;;;1.77;1.43;;;;;;;13.41;91.14;100393.22;5052646;28;20446;-74
2021/05/18 06:35:41;;;;;;;4.77;2.40;;;;;;;13.40;91.04;100422.34;5052065;28;21011;-73
2021/05/18 06:43:37;;;;;;;2.60;1.50;;;;;;;13.37;91.31;100421.09;5054800;28;20932;-73
2021/05/18 06:46:13;;;;;;;3.40;1.87;;;;;;;13.46;91.26;100425.69;5055640;28;20847;-72
2021/05/18 06:48:41;;;;;;;3.20;1.50;;;;;;;13.55;90.22;100429.22;5055938;28;20427;-73
2021/05/18 06:51:07;;;;;;;4.83;2.10;;;;;;;13.49;90.27;100436.72;5055695;28;20446;-73
2021/05/18 06:53:32;;;;;;;2.57;2.00;;;;;;;13.49;89.90;100431.28;5055611;28;20983;-73
2021/05/18 06:56:00;;;;;;;3.87;1.90;;;;;;;13.41;90.24;100444.91;5055520;28;20498;-71
2021/05/18 07:01:28;;;;;;;4.63;2.73;;;;;;;13.31;90.31;100448.78;5055124;28;20608;-73
2021/05/18 07:03:58;;;;;;;4.03;2.47;;;;;;;13.31;90.07;100452.28;5055968;28;20437;-72
2021/05/18 07:06:37;;;;;;;3.27;1.97;;;;;;;13.31;90.19;100449.56;5055483;28;20466;-72
2021/05/18 07:09:04;;;;;;;2.30;2.10;;;;;;;13.35;90.66;100453.25;5055697;28;20481;-72
2021/05/18 07:11:30;;;;;;;6.53;2.50;;;;;;;13.31;90.71;100457.72;5055530;28;20443;-72
2021/05/18 07:13:57;;;;;;;7.47;3.40;;;;;;;13.36;90.76;100454.84;5055432;28;20500;-72
2021/05/18 07:16:23;;;;;;;4.00;2.40;;;;;;;13.37;91.02;100463.81;5055277;28;20467;-73
2021/05/18 07:18:50;;;;;;;3.10;1.90;;;;;;;13.37;91.03;100466.53;5055271;28;20540;-73
2021/05/18 07:21:19;;;;;;;4.60;2.80;;;;;;;13.39;91.01;100464.28;5055204;28;20473;-72
2021/05/18 07:23:46;;;;;;;3.57;2.30;;;;;;;13.41;90.85;100458.50;5055355;28;20449;-72
2021/05/18 07:26:12;;;;;;;3.17;1.80;;;;;;;13.49;91.06;100468.59;5055254;28;20472;-73
2021/05/18 07:28:38;;;;;;;2.60;2.40;;;;;;;13.55;91.08;100475.47;5055229;28;20437;-73
2021/05/18 07:31:05;;;;;;;2.70;2.03;;;;;;;13.62;90.80;100479.28;5055065;28;20465;-73
2021/05/18 07:33:32;;;;;;;3.97;2.13;;;;;;;13.66;90.48;100479.44;5055066;28;20448;-73
2021/05/18 07:36:02;;;;;;;3.20;2.23;;;;;;;13.76;89.95;100475.56;5054571;28;20876;-72
2021/05/18 07:38:29;;;;;;;4.00;2.70;;;;;;;13.80;89.86;100484.69;5055077;28;20477;-73
2021/05/18 07:40:56;;;;;;;4.20;2.60;;;;;;;13.80;89.86;100484.69;5054693;28;20532;-73
2021/05/18 07:43:22;;;;;;;5.77;2.27;;;;;;;13.85;89.33;100488.03;5054943;28;20485;-73
2021/05/18 07:45:53;;;;;;;2.50;1.93;;;;;;;13.72;88.60;100488.22;5054553;28;20560;-73
2021/05/18 07:48:24;;;;;;;3.23;1.50;;;;;;;13.69;88.88;100486.97;5054972;28;20449;-73
2021/05/18 07:50:57;;;;;;;3.33;1.87;;;;;;;13.67;87.64;100502.81;5054619;28;20795;-73
2021/05/18 08:07:07;;;;;;;0.80;0.60;;;;;;;12.66;95.77;100509.50;5054551;28;20444;-71
2021/05/18 08:09:38;;;;;;;1.23;0.70;;;;;;;12.52;96.60;100502.28;5054342;28;20449;-73
2021/05/18 08:12:06;;;;;;;0.50;0.40;;;;;;;12.41;98.21;100505.63;5054391;28;20848;-73
2021/05/18 08:14:34;;;;;;;0.67;0.50;;;;;;;12.30;99.27;100516.75;5054249;28;20458;-75
2021/05/18 08:17:11;;;;;;;1.90;1.17;;;;;;;12.22;100.00;100520.25;5054258;28;20532;-72
2021/05/18 10:37:20;;;;;;;4.00;1.90;;;;;;;13.76;86.54;100593.41;5081367;23;20641;-77
2021/05/18 10:39:46;;;;;;;4.00;1.07;;;;;;;13.71;87.22;100596.31;5076737;28;20983;-77
2021/05/18 10:42:14;;;;;;;1.13;1.00;;;;;;;13.60;87.24;100600.50;5076509;28;20456;-78
2021/05/18 10:44:54;;;;;;;1.33;0.90;;;;;;;13.70;87.99;100596.66;5077405;28;20451;-79
2021/05/18 10:47:43;;;;;;;4.87;2.27;;;;;;;13.88;87.14;100601.75;5077130;28;20552;-78
2021/05/18 10:50:10;;;;;;;3.07;1.40;;;;;;;13.91;84.97;100599.50;5076698;28;20465;-78
2021/05/18 10:52:37;;;;;;;1.93;1.53;;;;;;;14.06;84.05;100602.50;5076282;28;20496;-78
2021/05/18 10:55:07;;;;;;;2.87;1.97;;;;;;;14.20;83.85;100606.97;5076637;28;20449;-78
2021/05/18 10:57:34;;;;;;;2.00;1.10;;;;;;;14.17;82.70;100602.97;5077981;28;20421;-78
2021/05/18 11:00:03;;;;;;;2.93;1.60;;;;;;;14.10;82.71;100594.50;5076932;28;20484;-77
2021/05/18 11:02:32;;;;;;;3.70;2.03;;;;;;;14.30;82.15;100599.25;5076586;28;20872;-78
2021/05/18 11:05:01;;;;;;;2.30;1.50;;;;;;;14.48;81.02;100601.91;5076351;28;20438;-78
2021/05/18 11:07:35;;;;;;;2.80;1.70;;;;;;;14.66;81.20;100600.75;5076145;28;20904;-77
2021/05/18 11:10:03;;;;;;;4.33;1.97;;;;;;;15.01;80.39;100598.63;5077444;28;20464;-77
2021/05/18 11:12:29;;;;;;;3.27;1.57;;;;;;;15.42;80.04;100602.53;5076427;28;20433;-78
2021/05/18 11:15:11;;;;;;;3.10;1.57;;;;;;;15.65;76.36;100594.81;5064400;28;20997;-78
2021/05/18 11:17:39;;;;;;;2.20;1.27;;;;;;;15.88;75.17;100598.75;5056233;28;20929;-78
2021/05/18 11:20:20;;;;;;;1.83;1.47;;;;;;;15.97;75.36;100592.41;5057165;28;20454;-78
2021/05/18 11:23:23;;;;;;;2.90;1.90;;;;;;;16.24;74.69;100591.00;5057671;28;20460;-77
2021/05/18 11:25:53;;;;;;;4.77;2.57;;;;;;;16.37;71.33;100595.34;5057769;28;20492;-77
2021/05/18 11:28:22;;;;;;;4.83;1.80;;;;;;;15.94;74.70;100604.00;5058565;28;20434;-78
2021/05/18 11:30:52;;;;;;;3.60;2.67;;;;;;;15.11;77.95;100595.50;5058464;28;20508;-78
2021/05/18 11:33:20;;;;;;;2.83;1.17;;;;;;;14.94;78.92;100597.56;5058165;28;20457;-78
2021/05/18 11:36:00;;;;;;;2.20;1.60;;;;;;;15.16;79.15;100594.53;5056329;28;20541;-78
2021/05/18 11:38:28;;;;;;;2.70;1.77;;;;;;;15.24;78.44;100592.88;5057677;28;20470;-78
2021/05/18 11:40:54;;;;;;;2.67;1.50;;;;;;;15.58;75.86;100592.59;5058153;28;20785;-77
2021/05/18 11:43:23;;;;;;;3.50;1.60;;;;;;;15.80;74.51;100599.63;5058618;28;20545;-78
2021/05/18 11:45:52;;;;;;;3.43;2.10;;;;;;;16.11;72.75;100590.16;5058672;28;20438;-78
2021/05/18 11:48:20;;;;;;;3.73;1.23;;;;;;;16.25;71.64;100585.22;5058221;28;20811;-78
2021/05/18 11:50:59;;;;;;;1.20;1.10;;;;;;;16.05;69.67;100575.94;5058442;28;20465;-78
2021/05/18 11:53:32;;;;;;;1.90;1.63;;;;;;;16.00;71.07;100584.34;5056965;28;20438;-78
2021/05/18 11:55:58;;;;;;;1.70;1.53;;;;;;;16.14;71.38;100590.28;5059035;28;20818;-79
2021/05/18 11:58:24;;;;;;;2.37;1.00;;;;;;;16.26;72.00;100583.28;5061352;28;20490;-78
2021/05/18 12:00:51;;;;;;;3.13;1.70;;;;;;;16.42;71.42;100577.91;5058010;28;20480;-78
2021/05/18 12:03:17;;;;;;;1.00;0.90;;;;;;;16.45;68.89;100579.97;5057216;28;20512;-78
2021/05/18 12:05:52;;;;;;;1.70;0.97;;;;;;;16.67;69.88;100585.00;5057005;28;20947;-78
2021/05/18 12:08:25;;;;;;;2.00;1.90;;;;;;;16.65;68.07;100582.63;5057154;28;20434;-78
2021/05/18 12:10:51;;;;;;;2.50;0.77;;;;;;;16.78;68.31;100583.44;5056641;28;20443;-79
2021/05/18 12:13:28;;;;;;;1.43;1.00;;;;;;;16.86;66.99;100577.03;5057339;28;20828;-78
2021/05/18 12:16:03;;;;;;;2.67;0.70;;;;;;;16.70;66.83;100583.53;5056662;28;20434;-78
2021/05/18 12:18:31;;;;;;;1.50;1.00;;;;;;;16.79;67.39;100585.03;5057501;28;20484;-78
2021/05/18 12:21:01;;;;;;;0.97;0.80;;;;;;;16.88;66.43;100580.25;5057993;28;20960;-78
2021/05/18 12:23:28;;;;;;;0.83;0.70;;;;;;;16.70;65.80;100584.34;5056998;28;20431;-79
2021/05/18 12:26:08;;;;;;;1.07;0.70;;;;;;;16.63;66.49;100589.56;5055959;28;20449;-77
2021/05/18 12:28:35;;;;;;;0.97;0.70;;;;;;;16.56;66.12;100589.34;5056116;28;20427;-78
2021/05/18 12:31:02;;;;;;;2.60;1.03;;;;;;;16.51;65.96;100593.09;5056471;28;20454;-78
2021/05/18 12:33:36;;;;;;;0.70;0.40;;;;;;;16.32;65.02;100587.38;5056096;28;20442;-77
2021/05/18 12:36:03;;;;;;;2.40;0.90;;;;;;;16.07;66.05;100586.50;5055064;28;20949;-77
2021/05/18 12:38:29;;;;;;;1.37;0.90;;;;;;;15.96;67.16;100590.81;5054756;28;20474;-77
2021/05/18 12:41:02;;;;;;;0.93;0.83;;;;;;;15.95;68.33;100586.50;5054526;28;20545;-78
2021/05/18 12:43:38;;;;;;;2.63;1.37;;;;;;;16.05;68.49;100583.34;5055393;28;20430;-77
2021/05/18 12:46:10;;;;;;;0.93;0.83;;;;;;;16.27;67.04;100588.38;5055605;28;20434;-78
2021/05/18 12:48:37;;;;;;;1.10;0.90;;;;;;;16.51;66.80;100584.91;5055620;28;20554;-77
2021/05/18 12:51:15;;;;;;;1.40;0.93;;;;;;;16.51;64.72;100595.00;5055739;28;20469;-77
2021/05/18 12:53:42;;;;;;;1.07;0.80;;;;;;;16.66;66.43;100588.88;5056039;28;20472;-77
2021/05/18 12:56:08;;;;;;;2.10;0.80;;;;;;;16.98;65.45;100587.19;5055394;28;20504;-78
2021/05/18 12:58:36;;;;;;;1.00;0.87;;;;;;;17.33;64.77;100594.88;5055413;28;20486;-78
2021/05/18 13:01:08;;;;;;;1.30;1.03;;;;;;;17.52;61.93;100595.03;5055084;28;20446;-78
2021/05/18 13:03:34;;;;;;;0.83;0.80;;;;;;;17.57;62.53;100597.53;5054867;28;20441;-78
2021/05/18 13:06:01;;;;;;;0.87;0.60;;;;;;;17.44;61.25;100598.72;5054809;28;20442;-78
2021/05/18 13:08:31;;;;;;;2.73;1.60;;;;;;;17.61;62.03;100592.16;5054798;28;20933;-78
2021/05/18 13:11:16;;;;;;;1.43;0.73;;;;;;;17.74;62.60;100601.16;5054895;28;20430;-78
2021/05/18 13:13:54;;;;;;;2.10;0.80;;;;;;;17.72;57.40;100598.75;5055386;28;20435;-77
2021/05/18 13:16:23;;;;;;;1.23;0.97;;;;;;;17.76;57.87;100598.88;5054840;28;20446;-78
2021/05/18 13:18:56;;;;;;;1.63;0.70;;;;;;;17.75;58.18;100602.75;5055358;28;20489;-78
2021/05/18 13:21:24;;;;;;;0.87;0.63;;;;;;;18.47;56.82;100600.75;5054734;28;20941;-78
2021/05/18 13:24:00;;;;;;;4.93;1.20;;;;;;;19.13;52.84;100596.44;5054957;28;20442;-77
2021/05/18 13:26:26;;;;;;;0.80;0.70;;;;;;;19.39;54.63;100598.59;5055048;28;20450;-78
2021/05/18 13:28:58;;;;;;;1.87;0.90;;;;;;;19.44;53.50;100597.50;5055342;28;20469;-78
2021/05/18 13:31:25;;;;;;;1.03;0.60;;;;;;;19.16;54.00;100598.47;5054941;28;20433;-77
2021/05/18 13:33:51;;;;;;;0.60;0.53;;;;;;;18.74;54.53;100604.56;5054248;28;20439;-77
2021/05/18 13:36:17;;;;;;;0.90;0.80;;;;;;;18.70;56.20;100595.47;5054080;28;20569;-78
2021/05/18 13:38:43;;;;;;;1.10;1.00;;;;;;;18.48;56.52;100598.81;5054038;28;20490;-77
2021/05/18 13:41:09;;;;;;;3.30;1.20;;;;;;;18.51;57.10;100603.59;5053700;28;20469;-78
2021/05/18 13:43:35;;;;;;;1.73;1.00;;;;;;;18.70;56.16;100600.16;5054395;28;20438;-78
2021/05/18 13:46:02;;;;;;;0.63;0.63;;;;;;;18.79;55.14;100595.28;5054155;28;20488;-78
2021/05/18 13:48:29;;;;;;;1.00;0.70;;;;;;;18.69;53.64;100610.34;5054157;28;20497;-78
2021/05/18 13:50:55;;;;;;;1.17;0.83;;;;;;;18.59;54.26;100606.16;5053801;28;20926;-79
2021/05/18 13:53:22;;;;;;;1.43;1.03;;;;;;;18.76;51.94;100595.97;5058074;28;20461;-78
2021/05/18 13:55:48;;;;;;;1.37;0.60;;;;;;;18.82;49.95;100603.59;5057973;28;20515;-77
2021/05/18 13:58:15;;;;;;;2.17;0.83;;;;;;;18.96;51.34;100592.16;5057943;28;20568;-77
2021/05/18 14:00:41;;;;;;;1.90;0.83;;;;;;;19.20;52.63;100584.81;5057945;28;20462;-77
2021/05/18 14:03:07;;;;;;;1.53;0.80;;;;;;;19.24;51.84;100591.97;5057951;28;20446;-78
2021/05/18 14:05:34;;;;;;;1.30;0.93;;;;;;;19.57;50.07;100591.50;5057942;28;20453;-77
2021/05/18 14:08:25;;;;;;;0.90;0.90;;;;;;;20.20;50.04;100595.06;5057928;28;20451;-78
2021/05/18 14:10:58;;;;;;;0.70;0.57;;;;;;;20.29;46.72;100601.91;5058472;28;20437;-78
2021/05/18 14:13:26;;;;;;;1.57;1.10;;;;;;;19.82;47.23;100600.25;5057678;28;20441;-77
2021/05/18 14:15:52;;;;;;;0.77;0.67;;;;;;;19.54;47.51;100597.72;5057577;28;20529;-78
2021/05/18 14:18:19;;;;;;;2.50;0.90;;;;;;;19.27;47.75;100590.47;5057057;28;20857;-78
2021/05/18 14:20:47;;;;;;;0.60;0.50;;;;;;;19.06;49.24;100596.28;5057115;28;21006;-78
2021/05/18 14:23:13;;;;;;;0.83;0.83;;;;;;;18.71;50.29;100594.28;5057696;28;20430;-78
2021/05/18 14:25:39;;;;;;;2.07;0.67;;;;;;;18.63;50.75;100585.06;5057329;28;20503;-77
2021/05/18 14:28:06;;;;;;;1.00;0.90;;;;;;;18.35;50.50;100590.66;5057404;28;20791;-77
2021/05/18 14:30:33;;;;;;;1.20;0.70;;;;;;;18.06;51.31;100589.13;5057441;28;20839;-78
2021/05/18 14:32:59;;;;;;;1.20;0.70;;;;;;;17.80;51.84;100580.59;5056970;28;20450;-77
2021/05/18 14:35:27;;;;;;;0.80;0.80;;;;;;;17.64;53.21;100594.19;5057438;28;20458;-77
2021/05/18 14:37:58;;;;;;;1.13;0.60;;;;;;;17.58;53.07;100590.13;5057162;28;20920;-78
2021/05/18 14:40:40;;;;;;;0.83;0.80;;;;;;;17.69;53.49;100591.22;5057544;28;20520;-79
2021/05/18 14:43:24;;;;;;;0.80;0.40;;;;;;;17.77;53.07;100584.03;5056943;28;20932;-78
2021/05/18 14:45:52;;;;;;;1.03;0.83;;;;;;;17.87;53.45;100592.53;5060046;28;20430;-78
2021/05/18 14:53:38;;;;;;;1.00;0.60;;;;;;;17.92;53.71;100593.41;5058317;28;20477;-77
2021/05/18 14:54:10;;;;;;;0.67;0.60;;;;;;;17.43;55.77;100591.66;5056689;28;20437;-77
2021/05/18 14:56:36;;;;;;;1.53;0.53;;;;;;;17.23;56.94;100592.63;5056671;28;20461;-77
2021/05/18 14:59:03;;;;;;;0.60;0.43;;;;;;;17.13;57.53;100582.94;5056829;28;20486;-77
2021/05/18 15:01:29;;;;;;;1.47;0.80;;;;;;;17.23;57.88;100590.69;5057055;28;20446;-78
2021/05/18 15:03:55;;;;;;;1.23;1.00;;;;;;;17.19;59.00;100589.78;5055935;28;20450;-78
2021/05/18 15:06:21;;;;;;;4.93;0.80;;;;;;;16.98;58.57;100598.13;5056702;28;20443;-78
2021/05/18 15:08:47;;;;;;;2.10;1.33;;;;;;;16.92;58.28;100585.03;5056591;28;20809;-79
2021/05/18 15:11:14;;;;;;;1.33;0.80;;;;;;;16.92;58.39;100594.03;5056808;28;21003;-78
2021/05/18 15:13:40;;;;;;;1.40;0.70;;;;;;;17.02;58.32;100593.56;5056828;28;20442;-77
2021/05/18 15:16:06;;;;;;;0.70;0.60;;;;;;;16.96;58.59;100594.94;5056822;28;20476;-78
2021/05/18 15:18:33;;;;;;;2.10;0.87;;;;;;;16.92;58.70;100591.31;5057138;28;21001;-78
2021/05/18 15:20:59;;;;;;;0.60;0.40;;;;;;;16.96;59.38;100591.41;5057761;28;20442;-80
2021/05/18 15:23:27;;;;;;;2.57;1.00;;;;;;;16.96;59.32;100592.22;5057416;28;20435;-78
2021/05/18 15:25:53;;;;;;;0.90;0.70;;;;;;;16.90;58.35;100594.38;5057168;28;20450;-78
2021/05/18 15:28:20;;;;;;;0.90;0.57;;;;;;;16.67;58.85;100601.41;5057263;28;20476;-78
2021/05/18 15:30:46;;;;;;;1.00;0.70;;;;;;;16.57;59.75;100599.16;5056811;28;20839;-78
2021/05/18 15:33:12;;;;;;;1.10;0.93;;;;;;;16.56;60.50;100597.56;5057178;28;20446;-78
2021/05/18 15:35:38;;;;;;;0.70;0.60;;;;;;;16.36;60.40;100604.69;5057346;28;20466;-77
2021/05/18 15:38:05;;;;;;;0.50;0.40;;;;;;;16.35;59.48;100603.91;5056935;28;20462;-78
2021/05/18 15:40:31;;;;;;;2.90;0.63;;;;;;;16.35;60.28;100609.38;5056333;28;20909;-78
2021/05/18 15:42:57;;;;;;;1.43;0.80;;;;;;;16.32;60.82;100604.56;5056942;28;20446;-78
2021/05/18 15:45:24;;;;;;;2.37;1.10;;;;;;;16.20;60.31;100604.53;5056759;28;20971;-77
2021/05/18 15:47:50;;;;;;;0.87;0.80;;;;;;;16.31;61.54;100608.44;5056586;28;20443;-78
2021/05/18 15:50:16;;;;;;;1.00;0.90;;;;;;;16.35;61.25;100606.63;5055758;28;20497;-78